Time;durP1;ratioP1;P1;durP2;ratioP2;P2;SDS_P1;SDS_P2;PMS_P1;PMS_P2;Temp;Humidity;BMP_temperature;BMP_pressure;BME280_temperature;BME280_humidity;BME280_pressure;Samples;Min_cycle;Max_cycle;Signal;HPM_P1;HPM_P2
2023/12/03 04:45:08;;;;;;;1999.90;999.90;;;;;;;;;;5019677;23;20054;-72
2023/12/03 04:47:34;;;;;;;1999.90;999.90;;;;;;;;;;4970638;28;20074;-62
2023/12/03 04:50:00;;;;;;;1999.90;999.90;;;;;;;;;;4973903;28;20042;-57
2023/12/03 04:52:26;;;;;;;1999.90;999.90;;;;;;;;;;4974541;28;20027;-62
2023/12/03 04:54:52;;;;;;;1999.90;999.90;;;;;;;;;;4974635;28;20038;-61
2023/12/03 04:57:18;;;;;;;1999.90;999.90;;;;;;;;;;4974427;28;20026;-58
2023/12/03 04:59:44;;;;;;;1999.90;999.90;;;;;;;;;;4974293;28;20098;-60
2023/12/03 05:02:10;;;;;;;1999.90;999.90;;;;;;;;;;4977974;28;20023;-58
2023/12/03 05:04:36;;;;;;;1999.90;999.90;;;;;;;;;;4993645;28;20113;-69
2023/12/03 05:07:02;;;;;;;1999.90;999.90;;;;;;;;;;4993570;28;20136;-63
2023/12/03 05:09:28;;;;;;;1999.90;999.90;;;;;;;;;;4993448;28;20034;-67
2023/12/03 05:11:54;;;;;;;1999.90;999.90;;;;;;;;;;4993493;28;20112;-57
2023/12/03 05:14:20;;;;;;;1999.90;999.90;;;;;;;;;;4993573;28;20061;-59
2023/12/03 05:16:47;;;;;;;1999.90;999.90;;;;;;;;;;4993104;28;20520;-62
2023/12/03 05:19:13;;;;;;;1999.90;999.90;;;;;;;;;;4993416;28;20030;-64
2023/12/03 05:21:39;;;;;;;1999.90;999.90;;;;;;;;;;4993348;28;20129;-64
2023/12/03 05:24:05;;;;;;;1999.90;999.90;;;;;;;;;;4993532;28;20050;-58
2023/12/03 05:26:31;;;;;;;1999.90;999.90;;;;;;;;;;4993412;28;20026;-68
2023/12/03 05:28:58;;;;;;;1999.90;999.90;;;;;;;;;;4993378;28;20041;-59
2023/12/03 05:31:24;;;;;;;1999.90;999.90;;;;;;;;;;4993348;28;20037;-63
2023/12/03 05:33:50;;;;;;;1999.90;999.90;;;;;;;;;;4993198;28;20033;-59
2023/12/03 05:36:20;;;;;;;1999.90;999.90;;;;;;;;;;4993122;28;20030;-59
2023/12/03 05:38:47;;;;;;;1999.90;999.90;;;;;;;;;;4993092;28;20025;-64
2023/12/03 05:41:13;;;;;;;1999.90;999.90;;;;;;;;;;4993530;28;20381;-61
2023/12/03 05:43:40;;;;;;;1999.90;999.90;;;;;;;;;;4986695;28;20031;-70
2023/12/03 05:46:06;;;;;;;1999.90;999.90;;;;;;;;;;4973790;28;20039;-70
2023/12/03 05:48:32;;;;;;;1999.90;999.90;;;;;;;;;;4973429;28;20435;-70
2023/12/03 05:50:58;;;;;;;1999.90;999.90;;;;;;;;;;4973783;28;20034;-69
2023/12/03 05:53:24;;;;;;;1999.90;999.90;;;;;;;;;;4973748;28;20031;-63
2023/12/03 05:55:50;;;;;;;1999.90;999.90;;;;;;;;;;4973253;28;20039;-69
2023/12/03 05:58:16;;;;;;;1999.90;999.90;;;;;;;;;;4973345;28;20031;-70
2023/12/03 06:00:42;;;;;;;1999.90;999.90;;;;;;;;;;4973516;28;20065;-71
2023/12/03 06:03:08;;;;;;;1999.90;999.90;;;;;;;;;;4973343;28;20030;-70
2023/12/03 06:05:34;;;;;;;1999.90;999.90;;;;;;;;;;4973487;28;20381;-70
2023/12/03 06:08:00;;;;;;;1999.90;999.90;;;;;;;;;;4973242;28;20027;-70
2023/12/03 06:10:26;;;;;;;1999.90;999.90;;;;;;;;;;4973184;28;20105;-70
2023/12/03 06:12:52;;;;;;;1999.90;999.90;;;;;;;;;;4973146;28;20019;-71
2023/12/03 06:15:18;;;;;;;1999.90;999.90;;;;;;;;;;4973201;28;20482;-67
2023/12/03 06:17:44;;;;;;;1999.90;999.90;;;;;;;;;;4973063;28;20027;-68
2023/12/03 06:20:11;;;;;;;1999.90;999.90;;;;;;;;;;4972879;28;20050;-60
2023/12/03 06:22:37;;;;;;;1999.90;999.90;;;;;;;;;;4972753;28;20027;-60
2023/12/03 06:25:03;;;;;;;1999.90;999.90;;;;;;;;;;4973043;28;20023;-58
2023/12/03 06:27:29;;;;;;;1999.90;999.90;;;;;;;;;;4972807;28;20019;-60
2023/12/03 06:29:57;;;;;;;1999.90;999.90;;;;;;;;;;4972165;28;20052;-68
2023/12/03 06:32:23;;;;;;;1999.90;999.90;;;;;;;;;;4972823;28;20053;-70
2023/12/03 06:34:49;;;;;;;1999.90;999.90;;;;;;;;;;4972710;28;20034;-70
2023/12/03 06:37:15;;;;;;;1999.90;999.90;;;;;;;;;;4972637;28;20042;-70
2023/12/03 06:39:41;;;;;;;1999.90;999.90;;;;;;;;;;4972762;28;20034;-63
2023/12/03 06:42:07;;;;;;;1999.90;999.90;;;;;;;;;;4972504;28;20070;-70
2023/12/03 06:44:33;;;;;;;1999.90;999.90;;;;;;;;;;4972271;28;20035;-70
2023/12/03 06:46:59;;;;;;;1999.90;999.90;;;;;;;;;;4972372;28;20085;-71
2023/12/03 06:49:25;;;;;;;1999.90;999.90;;;;;;;;;;4972326;28;20038;-70
2023/12/03 06:51:51;;;;;;;1999.90;999.90;;;;;;;;;;4972330;28;20045;-71
2023/12/03 06:54:18;;;;;;;1999.90;999.90;;;;;;;;;;4971913;28;20058;-69
2023/12/03 06:56:44;;;;;;;1999.90;999.90;;;;;;;;;;4972152;28;20085;-68
2023/12/03 06:59:10;;;;;;;1999.90;999.90;;;;;;;;;;4972112;28;20372;-70
2023/12/03 07:01:36;;;;;;;1999.90;999.90;;;;;;;;;;4972049;28;20035;-70
2023/12/03 07:04:02;;;;;;;1999.90;999.90;;;;;;;;;;4971747;28;20047;-68
2023/12/03 07:06:28;;;;;;;1999.90;999.90;;;;;;;;;;4971632;28;20046;-68
2023/12/03 07:08:54;;;;;;;1999.90;999.90;;;;;;;;;;4971679;28;20033;-65
2023/12/03 07:11:20;;;;;;;1999.90;999.90;;;;;;;;;;4954212;28;20045;-70
2023/12/03 07:13:47;;;;;;;1999.90;999.90;;;;;;;;;;4971878;28;20085;-69
2023/12/03 07:16:13;;;;;;;1999.90;999.90;;;;;;;;;;4972356;28;20437;-67
2023/12/03 07:18:45;;;;;;;1999.90;999.90;;;;;;;;;;4971188;28;20069;-61
2023/12/03 07:21:11;;;;;;;1999.90;999.90;;;;;;;;;;4971919;28;20041;-70
2023/12/03 07:23:37;;;;;;;1999.90;999.90;;;;;;;;;;4971700;28;20037;-64
2023/12/03 07:26:09;;;;;;;1999.90;999.90;;;;;;;;;;4972002;28;20027;-70
2023/12/03 07:28:35;;;;;;;1999.90;999.90;;;;;;;;;;4971873;28;20054;-65
2023/12/03 07:31:02;;;;;;;1999.90;999.90;;;;;;;;;;4971790;28;20034;-69
2023/12/03 07:33:29;;;;;;;1999.90;999.90;;;;;;;;;;4971876;28;20022;-66
2023/12/03 07:35:55;;;;;;;1999.90;999.90;;;;;;;;;;4971591;28;20442;-65
2023/12/03 07:38:21;;;;;;;1999.90;999.90;;;;;;;;;;4971819;28;20027;-62
2023/12/03 07:40:47;;;;;;;1999.90;999.90;;;;;;;;;;4953013;28;20069;-67
2023/12/03 07:43:13;;;;;;;1999.90;999.90;;;;;;;;;;4958336;28;20035;-68
2023/12/03 07:45:39;;;;;;;1999.90;999.90;;;;;;;;;;4951949;29;20106;-67
2023/12/03 07:48:05;;;;;;;1999.90;999.90;;;;;;;;;;4951977;29;20488;-65
2023/12/03 07:50:31;;;;;;;1999.90;999.90;;;;;;;;;;4951875;29;20078;-65
2023/12/03 07:52:58;;;;;;;1999.90;999.90;;;;;;;;;;4951590;29;20019;-66
2023/12/03 07:55:24;;;;;;;1999.90;999.90;;;;;;;;;;4951812;29;20094;-63
2023/12/03 07:57:50;;;;;;;1999.90;999.90;;;;;;;;;;4951686;29;20060;-66
2023/12/03 08:00:17;;;;;;;1999.90;999.90;;;;;;;;;;4951716;29;20320;-64
2023/12/03 08:02:43;;;;;;;1999.90;999.90;;;;;;;;;;4951499;29;20082;-66
2023/12/03 08:05:09;;;;;;;1999.90;999.90;;;;;;;;;;4951818;29;20083;-69
2023/12/03 08:07:35;;;;;;;1999.90;999.90;;;;;;;;;;4951251;29;20038;-59
2023/12/03 08:10:02;;;;;;;1999.90;999.90;;;;;;;;;;4951730;29;20046;-71
2023/12/03 08:12:29;;;;;;;1999.90;999.90;;;;;;;;;;4926015;29;20031;-65
2023/12/03 08:14:55;;;;;;;1999.90;999.90;;;;;;;;;;4925962;29;20062;-65
2023/12/03 08:17:21;;;;;;;1999.90;999.90;;;;;;;;;;4952260;29;20035;-63
2023/12/03 08:19:47;;;;;;;1999.90;999.90;;;;;;;;;;4951993;29;20435;-63
2023/12/03 08:22:13;;;;;;;1999.90;999.90;;;;;;;;;;4951504;29;20038;-69
2023/12/03 08:24:39;;;;;;;1999.90;999.90;;;;;;;;;;4951412;29;20491;-58
2023/12/03 08:27:05;;;;;;;1999.90;999.90;;;;;;;;;;4951573;29;20043;-68
2023/12/03 08:29:32;;;;;;;1999.90;999.90;;;;;;;;;;4952586;29;20023;-67
2023/12/03 08:31:58;;;;;;;1999.90;999.90;;;;;;;;;;4951965;29;20391;-68
2023/12/03 08:34:26;;;;;;;1999.90;999.90;;;;;;;;;;4952253;29;20027;-64
2023/12/03 08:36:52;;;;;;;1999.90;999.90;;;;;;;;;;4952103;29;20119;-65
2023/12/03 08:39:18;;;;;;;1999.90;999.90;;;;;;;;;;4951945;29;20023;-62
2023/12/03 08:41:44;;;;;;;1999.90;999.90;;;;;;;;;;4951515;29;20118;-69
2023/12/03 08:44:10;;;;;;;1999.90;999.90;;;;;;;;;;4948724;28;20043;-58
2023/12/03 08:46:36;;;;;;;1999.90;999.90;;;;;;;;;;4942175;29;20054;-69
2023/12/03 08:49:02;;;;;;;1999.90;999.90;;;;;;;;;;4932415;29;20031;-69
2023/12/03 08:51:28;;;;;;;1999.90;999.90;;;;;;;;;;4932619;29;20484;-65
2023/12/03 08:53:55;;;;;;;1999.90;999.90;;;;;;;;;;4935563;29;20032;-67
2023/12/03 08:56:21;;;;;;;1999.90;999.90;;;;;;;;;;4935893;29;20479;-69
2023/12/03 08:58:48;;;;;;;1999.90;999.90;;;;;;;;;;4935980;29;20028;-69
2023/12/03 09:01:14;;;;;;;1999.90;999.90;;;;;;;;;;4954144;29;20424;-63
2023/12/03 09:03:40;;;;;;;1999.90;999.90;;;;;;;;;;4954062;29;20031;-66
2023/12/03 09:06:07;;;;;;;1999.90;999.90;;;;;;;;;;4954659;29;20023;-68
2023/12/03 09:08:33;;;;;;;1999.90;999.90;;;;;;;;;;4953933;29;20062;-61
2023/12/03 09:10:59;;;;;;;1999.90;999.90;;;;;;;;;;4953931;29;20019;-68
2023/12/03 09:13:25;;;;;;;1999.90;999.90;;;;;;;;;;4950947;29;20165;-61
2023/12/03 09:15:51;;;;;;;1999.90;999.90;;;;;;;;;;4954345;29;20035;-68
2023/12/03 09:18:18;;;;;;;1999.90;999.90;;;;;;;;;;4953723;29;20019;-68
2023/12/03 09:20:44;;;;;;;1999.90;999.90;;;;;;;;;;4918424;29;20040;-66
2023/12/03 09:23:10;;;;;;;1999.90;999.90;;;;;;;;;;4935051;29;20016;-67
2023/12/03 09:25:36;;;;;;;1999.90;999.90;;;;;;;;;;4935299;29;20033;-61
2023/12/03 09:28:03;;;;;;;1999.90;999.90;;;;;;;;;;4935071;29;20035;-66
2023/12/03 09:30:30;;;;;;;1999.90;999.90;;;;;;;;;;4935316;29;20360;-65
2023/12/03 09:32:56;;;;;;;1999.90;999.90;;;;;;;;;;4938036;29;20027;-65
2023/12/03 09:35:22;;;;;;;1999.90;999.90;;;;;;;;;;4926567;29;20043;-65
2023/12/03 09:37:49;;;;;;;1999.90;999.90;;;;;;;;;;4935192;29;20459;-67
2023/12/03 09:40:15;;;;;;;1999.90;999.90;;;;;;;;;;4946843;29;20182;-61
2023/12/03 09:42:45;;;;;;;1999.90;999.90;;;;;;;;;;4953551;29;20102;-68
2023/12/03 09:45:12;;;;;;;1999.90;999.90;;;;;;;;;;4947487;28;20095;-66
2023/12/03 09:47:38;;;;;;;1999.90;999.90;;;;;;;;;;4952559;29;20114;-67
2023/12/03 09:50:04;;;;;;;1999.90;999.90;;;;;;;;;;4954120;29;20027;-65
2023/12/03 09:52:32;;;;;;;1999.90;999.90;;;;;;;;;;4954010;29;20019;-62
2023/12/03 09:54:58;;;;;;;1999.90;999.90;;;;;;;;;;4948958;29;20392;-67
2023/12/03 09:57:29;;;;;;;1999.90;999.90;;;;;;;;;;4953340;29;20027;-67
2023/12/03 10:00:00;;;;;;;1999.90;999.90;;;;;;;;;;4953294;29;20039;-63
2023/12/03 10:02:28;;;;;;;1999.90;999.90;;;;;;;;;;4953156;29;20188;-67
2023/12/03 10:04:55;;;;;;;1999.90;999.90;;;;;;;;;;4953020;28;20027;-67
2023/12/03 10:07:22;;;;;;;1999.90;999.90;;;;;;;;;;4953809;29;20028;-65
2023/12/03 10:09:49;;;;;;;1999.90;999.90;;;;;;;;;;4953460;29;20039;-71
2023/12/03 10:12:17;;;;;;;1999.90;999.90;;;;;;;;;;4922849;29;20039;-68
2023/12/03 10:14:45;;;;;;;1999.90;999.90;;;;;;;;;;4953187;29;20055;-68
2023/12/03 10:17:19;;;;;;;1999.90;999.90;;;;;;;;;;4928812;29;20064;-73
2023/12/03 10:19:45;;;;;;;1999.90;999.90;;;;;;;;;;4951114;29;20558;-68
2023/12/03 10:22:12;;;;;;;1999.90;999.90;;;;;;;;;;4951412;29;20036;-65
2023/12/03 10:24:48;;;;;;;1999.90;999.90;;;;;;;;;;4951696;29;20035;-68
2023/12/03 10:27:14;;;;;;;1999.90;999.90;;;;;;;;;;4952882;29;20383;-68
2023/12/03 10:29:40;;;;;;;1999.90;999.90;;;;;;;;;;4947498;29;20019;-69
2023/12/03 10:32:09;;;;;;;1999.90;999.90;;;;;;;;;;4941046;29;20038;-65
2023/12/03 10:34:36;;;;;;;1999.90;999.90;;;;;;;;;;4944369;29;20042;-61
2023/12/03 10:37:02;;;;;;;1999.90;999.90;;;;;;;;;;4929392;29;20044;-69
2023/12/03 10:39:28;;;;;;;1999.90;999.90;;;;;;;;;;4933557;29;20091;-60
2023/12/03 10:41:55;;;;;;;1999.90;999.90;;;;;;;;;;4940078;29;20028;-64
2023/12/03 10:44:23;;;;;;;1999.90;999.90;;;;;;;;;;4934190;29;20088;-60
2023/12/03 10:46:50;;;;;;;1999.90;999.90;;;;;;;;;;4951414;29;20107;-57
2023/12/03 10:49:16;;;;;;;1999.90;999.90;;;;;;;;;;4930715;29;20032;-57
2023/12/03 10:51:43;;;;;;;1999.90;999.90;;;;;;;;;;4922413;29;20123;-68
2023/12/03 10:54:10;;;;;;;1999.90;999.90;;;;;;;;;;4933453;29;20055;-68
2023/12/03 10:56:36;;;;;;;1999.90;999.90;;;;;;;;;;4932920;29;20108;-66
2023/12/03 10:59:03;;;;;;;1999.90;999.90;;;;;;;;;;4942976;29;20030;-72
2023/12/03 11:01:31;;;;;;;1999.90;999.90;;;;;;;;;;4928430;29;20099;-67
2023/12/03 11:04:08;;;;;;;1999.90;999.90;;;;;;;;;;4926777;29;20395;-67
2023/12/03 11:06:35;;;;;;;1999.90;999.90;;;;;;;;;;4915765;29;20063;-59
2023/12/03 11:09:04;;;;;;;1999.90;999.90;;;;;;;;;;4921198;29;20056;-65
2023/12/03 11:11:31;;;;;;;1999.90;999.90;;;;;;;;;;4917101;29;20028;-69
2023/12/03 11:13:57;;;;;;;1999.90;999.90;;;;;;;;;;4923121;29;20042;-62
2023/12/03 11:16:29;;;;;;;1999.90;999.90;;;;;;;;;;4921342;29;20039;-68
2023/12/03 11:22:09;;;;;;;1999.90;999.90;;;;;;;;;;4927552;29;20266;-67
2023/12/03 11:24:43;;;;;;;1999.90;999.90;;;;;;;;;;4936683;29;20174;-70
2023/12/03 11:27:10;;;;;;;1999.90;999.90;;;;;;;;;;4933165;29;20730;-63
2023/12/03 11:29:48;;;;;;;1999.90;999.90;;;;;;;;;;4931481;29;20028;-63
2023/12/03 11:32:14;;;;;;;1999.90;999.90;;;;;;;;;;4916062;29;20095;-58
2023/12/03 11:34:40;;;;;;;1999.90;999.90;;;;;;;;;;4933001;29;20058;-64
2023/12/03 11:37:09;;;;;;;1999.90;999.90;;;;;;;;;;4932335;29;20062;-68
2023/12/03 11:42:18;;;;;;;1999.90;999.90;;;;;;;;;;4933466;29;20027;-68
2023/12/03 11:44:45;;;;;;;1999.90;999.90;;;;;;;;;;4915461;29;20100;-60
2023/12/03 11:47:14;;;;;;;1999.90;999.90;;;;;;;;;;4927238;29;20051;-65
2023/12/03 11:49:40;;;;;;;1999.90;999.90;;;;;;;;;;4949623;29;20035;-62
2023/12/03 11:52:07;;;;;;;1999.90;999.90;;;;;;;;;;4950007;29;20031;-66
2023/12/03 11:54:38;;;;;;;1999.90;999.90;;;;;;;;;;4951483;29;20039;-64
2023/12/03 11:57:15;;;;;;;1999.90;999.90;;;;;;;;;;4934858;29;20023;-61
2023/12/03 11:59:43;;;;;;;1999.90;999.90;;;;;;;;;;4952232;29;20465;-66
2023/12/03 12:02:09;;;;;;;1999.90;999.90;;;;;;;;;;4959239;28;20042;-67
2023/12/03 12:04:35;;;;;;;1999.90;999.90;;;;;;;;;;4959458;28;20430;-71
2023/12/03 12:07:15;;;;;;;1999.90;999.90;;;;;;;;;;4960579;28;20556;-68
2023/12/03 12:09:42;;;;;;;1999.90;999.90;;;;;;;;;;4962510;28;20023;-66
2023/12/03 12:12:08;;;;;;;1999.90;999.90;;;;;;;;;;4959787;28;20023;-69
2023/12/03 12:14:34;;;;;;;1999.90;999.90;;;;;;;;;;4960502;28;20034;-71
2023/12/03 12:17:02;;;;;;;1999.90;999.90;;;;;;;;;;4953422;28;20052;-67
2023/12/03 12:19:29;;;;;;;1999.90;999.90;;;;;;;;;;4959814;28;20027;-60
2023/12/03 12:21:58;;;;;;;1999.90;999.90;;;;;;;;;;4960989;28;20026;-65
2023/12/03 12:24:24;;;;;;;1999.90;999.90;;;;;;;;;;4942044;28;20402;-65
2023/12/03 12:26:50;;;;;;;1999.90;999.90;;;;;;;;;;4957579;28;20027;-67
2023/12/03 12:29:18;;;;;;;1999.90;999.90;;;;;;;;;;4964089;28;20416;-60
2023/12/03 12:31:44;;;;;;;1999.90;999.90;;;;;;;;;;4964868;28;20023;-65
2023/12/03 12:34:11;;;;;;;1999.90;999.90;;;;;;;;;;4961381;28;20387;-55
2023/12/03 12:36:37;;;;;;;1999.90;999.90;;;;;;;;;;4963752;28;20035;-66
2023/12/03 12:39:03;;;;;;;1999.90;999.90;;;;;;;;;;4963477;28;20043;-67
2023/12/03 12:41:39;;;;;;;1999.90;999.90;;;;;;;;;;4957973;28;20110;-57
2023/12/03 12:44:05;;;;;;;1999.90;999.90;;;;;;;;;;4952877;28;20062;-58
2023/12/03 12:46:32;;;;;;;1999.90;999.90;;;;;;;;;;4936129;29;20079;-58
2023/12/03 12:49:14;;;;;;;1999.90;999.90;;;;;;;;;;4936288;29;20487;-64
2023/12/03 12:51:41;;;;;;;1999.90;999.90;;;;;;;;;;4936573;29;20023;-64
2023/12/03 12:54:07;;;;;;;1999.90;999.90;;;;;;;;;;4936073;29;20024;-63
2023/12/03 12:56:34;;;;;;;1999.90;999.90;;;;;;;;;;4959661;28;20411;-58
2023/12/03 12:59:00;;;;;;;1999.90;999.90;;;;;;;;;;4963300;28;20027;-63
2023/12/03 13:01:26;;;;;;;1999.90;999.90;;;;;;;;;;4959569;28;20042;-62
2023/12/03 13:03:52;;;;;;;1999.90;999.90;;;;;;;;;;4960740;28;20019;-64
2023/12/03 13:06:21;;;;;;;1999.90;999.90;;;;;;;;;;4956474;28;20078;-63
2023/12/03 13:08:47;;;;;;;1999.90;999.90;;;;;;;;;;4964534;28;20055;-60
2023/12/03 13:11:13;;;;;;;1999.90;999.90;;;;;;;;;;4963005;28;20022;-64
2023/12/03 13:13:39;;;;;;;1999.90;999.90;;;;;;;;;;4960811;28;20063;-63
2023/12/03 13:16:06;;;;;;;1999.90;999.90;;;;;;;;;;4974131;28;20042;-63
2023/12/03 13:18:32;;;;;;;1999.90;999.90;;;;;;;;;;4974372;28;20386;-58
2023/12/03 13:20:58;;;;;;;1999.90;999.90;;;;;;;;;;4968118;28;20121;-57
2023/12/03 13:23:24;;;;;;;1999.90;999.90;;;;;;;;;;4974322;28;20034;-60
2023/12/03 13:25:50;;;;;;;1999.90;999.90;;;;;;;;;;4974073;28;20083;-62
2023/12/03 13:28:17;;;;;;;1999.90;999.90;;;;;;;;;;4956524;28;20109;-59
2023/12/03 13:30:43;;;;;;;1999.90;999.90;;;;;;;;;;4974393;28;20483;-62
2023/12/03 13:33:09;;;;;;;1999.90;999.90;;;;;;;;;;4973869;28;20059;-65
2023/12/03 13:35:36;;;;;;;1999.90;999.90;;;;;;;;;;4973906;28;20077;-64
2023/12/03 13:38:02;;;;;;;1999.90;999.90;;;;;;;;;;4972777;28;20040;-58
2023/12/03 13:40:28;;;;;;;1999.90;999.90;;;;;;;;;;4972062;28;20041;-62
2023/12/03 13:42:54;;;;;;;1999.90;999.90;;;;;;;;;;4970655;28;20030;-61
2023/12/03 13:45:21;;;;;;;1999.90;999.90;;;;;;;;;;4974052;28;20089;-63
2023/12/03 13:47:47;;;;;;;1999.90;999.90;;;;;;;;;;4965183;28;20058;-63
2023/12/03 13:50:13;;;;;;;1999.90;999.90;;;;;;;;;;4935442;29;20059;-63
2023/12/03 13:52:39;;;;;;;1999.90;999.90;;;;;;;;;;4964201;28;20054;-63
2023/12/03 13:55:05;;;;;;;1999.90;999.90;;;;;;;;;;4959645;28;20099;-56
2023/12/03 13:57:32;;;;;;;1999.90;999.90;;;;;;;;;;4954459;29;20613;-55
2023/12/03 13:59:58;;;;;;;1999.90;999.90;;;;;;;;;;4942313;29;20035;-65
2023/12/03 14:02:26;;;;;;;1999.90;999.90;;;;;;;;;;4953772;29;20102;-63
2023/12/03 14:04:52;;;;;;;1999.90;999.90;;;;;;;;;;4950109;29;20039;-64
2023/12/03 14:07:18;;;;;;;1999.90;999.90;;;;;;;;;;4951039;29;20114;-61
2023/12/03 14:09:44;;;;;;;1999.90;999.90;;;;;;;;;;4951161;29;20395;-65
2023/12/03 14:12:11;;;;;;;1999.90;999.90;;;;;;;;;;4942889;29;20028;-63
2023/12/03 14:14:37;;;;;;;1999.90;999.90;;;;;;;;;;4942022;29;20062;-65
2023/12/03 14:17:04;;;;;;;1999.90;999.90;;;;;;;;;;4944452;29;20074;-64
2023/12/03 14:19:30;;;;;;;1999.90;999.90;;;;;;;;;;4943057;29;20020;-57
2023/12/03 14:21:56;;;;;;;1999.90;999.90;;;;;;;;;;4944812;29;20019;-57
2023/12/03 14:24:22;;;;;;;1999.90;999.90;;;;;;;;;;4943137;29;20043;-57
2023/12/03 14:26:48;;;;;;;1999.90;999.90;;;;;;;;;;4935764;29;20035;-64
2023/12/03 14:29:14;;;;;;;1999.90;999.90;;;;;;;;;;4934748;29;20032;-64
2023/12/03 14:31:41;;;;;;;1999.90;999.90;;;;;;;;;;4934721;29;20499;-64
2023/12/03 14:34:07;;;;;;;1999.90;999.90;;;;;;;;;;4934236;29;20035;-66
2023/12/03 14:36:33;;;;;;;1999.90;999.90;;;;;;;;;;4934424;29;20036;-68
2023/12/03 14:39:00;;;;;;;1999.90;999.90;;;;;;;;;;4936605;29;20046;-60
2023/12/03 14:41:26;;;;;;;1999.90;999.90;;;;;;;;;;4946410;29;20135;-65
2023/12/03 14:43:52;;;;;;;1999.90;999.90;;;;;;;;;;4943936;28;20032;-65
2023/12/03 14:46:21;;;;;;;1999.90;999.90;;;;;;;;;;4951092;29;20051;-68
2023/12/03 14:48:47;;;;;;;1999.90;999.90;;;;;;;;;;4953223;29;20102;-66
2023/12/03 14:51:18;;;;;;;1999.90;999.90;;;;;;;;;;4952339;28;20050;-66
2023/12/03 14:53:44;;;;;;;1999.90;999.90;;;;;;;;;;4952869;29;20027;-61
2023/12/03 14:56:23;;;;;;;1999.90;999.90;;;;;;;;;;4952944;29;20039;-58
2023/12/03 14:58:52;;;;;;;1999.90;999.90;;;;;;;;;;4952868;29;20483;-65
2023/12/03 15:01:22;;;;;;;1999.90;999.90;;;;;;;;;;4952754;29;20069;-66
2023/12/03 15:03:48;;;;;;;1999.90;999.90;;;;;;;;;;4952603;29;20027;-65
2023/12/03 15:06:14;;;;;;;1999.90;999.90;;;;;;;;;;4952824;29;20167;-66
2023/12/03 15:08:40;;;;;;;1999.90;999.90;;;;;;;;;;4952682;29;20042;-66
2023/12/03 15:11:06;;;;;;;1999.90;999.90;;;;;;;;;;4948446;29;20050;-59
2023/12/03 15:13:33;;;;;;;1999.90;999.90;;;;;;;;;;4952360;29;20515;-66
2023/12/03 15:15:59;;;;;;;1999.90;999.90;;;;;;;;;;4952700;29;20070;-64
2023/12/03 15:18:25;;;;;;;1999.90;999.90;;;;;;;;;;4947795;29;20035;-67
2023/12/03 15:20:52;;;;;;;1999.90;999.90;;;;;;;;;;4952080;29;20122;-58
2023/12/03 15:23:19;;;;;;;1999.90;999.90;;;;;;;;;;4952745;29;20027;-64
2023/12/03 15:25:45;;;;;;;1999.90;999.90;;;;;;;;;;4952597;29;20618;-61
2023/12/03 15:28:11;;;;;;;1999.90;999.90;;;;;;;;;;4952453;29;20027;-65
2023/12/03 15:30:37;;;;;;;1999.90;999.90;;;;;;;;;;4952581;29;20051;-62
2023/12/03 15:33:03;;;;;;;1999.90;999.90;;;;;;;;;;4952455;29;20035;-65
2023/12/03 15:35:29;;;;;;;1999.90;999.90;;;;;;;;;;4952240;29;20031;-66
2023/12/03 15:37:55;;;;;;;1999.90;999.90;;;;;;;;;;4952738;29;20035;-66
2023/12/03 15:40:21;;;;;;;1999.90;999.90;;;;;;;;;;4952192;29;20070;-67
2023/12/03 15:42:53;;;;;;;1999.90;999.90;;;;;;;;;;4942448;29;20687;-63
2023/12/03 15:45:20;;;;;;;1999.90;999.90;;;;;;;;;;4943055;29;20131;-65
2023/12/03 15:47:46;;;;;;;1999.90;999.90;;;;;;;;;;4947313;28;20062;-60
2023/12/03 15:50:13;;;;;;;1999.90;999.90;;;;;;;;;;4952422;29;20034;-66
2023/12/03 15:52:39;;;;;;;1999.90;999.90;;;;;;;;;;4951256;29;20434;-58
2023/12/03 15:55:05;;;;;;;1999.90;999.90;;;;;;;;;;4950395;29;20134;-67
2023/12/03 15:57:31;;;;;;;1999.90;999.90;;;;;;;;;;4951203;29;20031;-57
2023/12/03 15:59:57;;;;;;;1999.90;999.90;;;;;;;;;;4931163;29;20015;-63
2023/12/03 16:02:23;;;;;;;1999.90;999.90;;;;;;;;;;4942145;28;20126;-67
2023/12/03 16:04:49;;;;;;;1999.90;999.90;;;;;;;;;;4952269;29;20027;-65
2023/12/03 16:07:16;;;;;;;1999.90;999.90;;;;;;;;;;4955777;29;20581;-65
2023/12/03 16:09:42;;;;;;;1999.90;999.90;;;;;;;;;;4955169;29;20401;-60
2023/12/03 16:12:08;;;;;;;1999.90;999.90;;;;;;;;;;4954569;29;20027;-70
2023/12/03 16:14:34;;;;;;;1999.90;999.90;;;;;;;;;;4943503;29;20066;-67
2023/12/03 16:17:00;;;;;;;1999.90;999.90;;;;;;;;;;4946611;29;20038;-58
2023/12/03 16:19:26;;;;;;;1999.90;999.90;;;;;;;;;;4941274;29;20031;-57
2023/12/03 16:21:52;;;;;;;1999.90;999.90;;;;;;;;;;4936254;29;20506;-66
2023/12/03 16:24:18;;;;;;;1999.90;999.90;;;;;;;;;;4954568;29;20027;-57
2023/12/03 16:26:44;;;;;;;1999.90;999.90;;;;;;;;;;4954964;29;20455;-61
2023/12/03 16:29:11;;;;;;;1999.90;999.90;;;;;;;;;;4953373;29;20032;-67
2023/12/03 16:31:37;;;;;;;1999.90;999.90;;;;;;;;;;4943256;29;20024;-66
2023/12/03 16:34:03;;;;;;;1999.90;999.90;;;;;;;;;;4940461;29;20115;-64
2023/12/03 16:36:29;;;;;;;1999.90;999.90;;;;;;;;;;4940647;29;20368;-67
2023/12/03 16:38:55;;;;;;;1999.90;999.90;;;;;;;;;;4935674;29;20075;-61
2023/12/03 16:41:21;;;;;;;1999.90;999.90;;;;;;;;;;4935836;29;20032;-65
2023/12/03 16:43:47;;;;;;;1999.90;999.90;;;;;;;;;;4937948;29;20180;-65
2023/12/03 16:46:13;;;;;;;1999.90;999.90;;;;;;;;;;4935012;29;20051;-69
2023/12/03 16:48:40;;;;;;;1999.90;999.90;;;;;;;;;;4943491;29;20035;-67
2023/12/03 16:51:06;;;;;;;1999.90;999.90;;;;;;;;;;4955478;29;20038;-61
2023/12/03 16:53:32;;;;;;;1999.90;999.90;;;;;;;;;;4955303;29;20102;-63
2023/12/03 16:55:58;;;;;;;1999.90;999.90;;;;;;;;;;4954187;29;20043;-68
2023/12/03 16:58:25;;;;;;;1999.90;999.90;;;;;;;;;;4948478;29;20023;-68
2023/12/03 17:00:51;;;;;;;1999.90;999.90;;;;;;;;;;4937246;29;20028;-67
2023/12/03 17:03:18;;;;;;;1999.90;999.90;;;;;;;;;;4954573;29;20581;-69
2023/12/03 17:05:44;;;;;;;1999.90;999.90;;;;;;;;;;4953516;29;20313;-65
2023/12/03 17:08:10;;;;;;;1999.90;999.90;;;;;;;;;;4949611;29;20028;-66
2023/12/03 17:10:36;;;;;;;1999.90;999.90;;;;;;;;;;4952922;29;20039;-69
2023/12/03 17:13:02;;;;;;;1999.90;999.90;;;;;;;;;;4952083;28;20031;-69
2023/12/03 17:15:33;;;;;;;1999.90;999.90;;;;;;;;;;4952722;29;20038;-69
2023/12/03 17:17:59;;;;;;;1999.90;999.90;;;;;;;;;;4952977;29;20027;-58
2023/12/03 17:20:26;;;;;;;1999.90;999.90;;;;;;;;;;4953208;29;20086;-56
2023/12/03 17:22:52;;;;;;;1999.90;999.90;;;;;;;;;;4953367;29;20050;-72
2023/12/03 17:25:19;;;;;;;1999.90;999.90;;;;;;;;;;4953480;29;20124;-60
2023/12/03 17:27:45;;;;;;;1999.90;999.90;;;;;;;;;;4953923;29;20041;-66
2023/12/03 17:30:12;;;;;;;1999.90;999.90;;;;;;;;;;4953117;29;20027;-65
2023/12/03 17:32:38;;;;;;;1999.90;999.90;;;;;;;;;;4954027;29;20023;-71
2023/12/03 17:35:05;;;;;;;1999.90;999.90;;;;;;;;;;4953400;29;20083;-64
2023/12/03 17:37:31;;;;;;;1999.90;999.90;;;;;;;;;;4953647;29;20106;-74
2023/12/03 17:39:57;;;;;;;1999.90;999.90;;;;;;;;;;4952820;29;20039;-68
2023/12/03 17:42:24;;;;;;;1999.90;999.90;;;;;;;;;;4952419;28;20082;-72
2023/12/03 17:44:50;;;;;;;1999.90;999.90;;;;;;;;;;4953582;28;20031;-71
2023/12/03 17:47:17;;;;;;;1999.90;999.90;;;;;;;;;;4948231;28;20051;-64
2023/12/03 17:49:43;;;;;;;1999.90;999.90;;;;;;;;;;4938283;29;20550;-66
2023/12/03 17:52:09;;;;;;;1999.90;999.90;;;;;;;;;;4942217;29;20035;-66
2023/12/03 17:54:35;;;;;;;1999.90;999.90;;;;;;;;;;4933386;29;20387;-61
2023/12/03 17:57:01;;;;;;;1999.90;999.90;;;;;;;;;;4938747;29;20472;-68
2023/12/03 17:59:27;;;;;;;1999.90;999.90;;;;;;;;;;4917561;29;20044;-68
2023/12/03 18:01:54;;;;;;;1999.90;999.90;;;;;;;;;;4935164;29;20250;-62
2023/12/03 18:04:20;;;;;;;1999.90;999.90;;;;;;;;;;4934735;29;20030;-69
2023/12/03 18:06:46;;;;;;;1999.90;999.90;;;;;;;;;;4937143;29;20020;-61
2023/12/03 18:09:12;;;;;;;1999.90;999.90;;;;;;;;;;4943239;29;20039;-64
2023/12/03 18:11:41;;;;;;;1999.90;999.90;;;;;;;;;;4940354;29;20403;-57
2023/12/03 18:14:08;;;;;;;1999.90;999.90;;;;;;;;;;4939834;29;20165;-57
2023/12/03 18:16:35;;;;;;;1999.90;999.90;;;;;;;;;;4939701;29;20036;-58
2023/12/03 18:19:02;;;;;;;1999.90;999.90;;;;;;;;;;4938558;29;20063;-59
2023/12/03 18:21:28;;;;;;;1999.90;999.90;;;;;;;;;;4952067;29;20100;-66
2023/12/03 18:23:54;;;;;;;1999.90;999.90;;;;;;;;;;4949275;29;20031;-63
2023/12/03 18:26:20;;;;;;;1999.90;999.90;;;;;;;;;;4950566;29;20114;-61
2023/12/03 18:28:46;;;;;;;1999.90;999.90;;;;;;;;;;4937822;29;20039;-61